sensor_id;sensor_type;location;lat;lon;timestamp;pressure;altitude;pressure_sealevel;temperature;humidity
28927;BME280;16038;47.692;9.400;2023-04-07T00:00:54;96699.75;;;5.51;100.00
28927;BME280;16038;47.692;9.400;2023-04-07T00:03:19;96699.69;;;5.39;100.00
28927;BME280;16038;47.692;9.400;2023-04-07T00:05:45;96684.34;;;5.22;100.00
28927;BME280;16038;47.692;9.400;2023-04-07T00:08:11;96690.56;;;5.02;100.00
28927;BME280;16038;47.692;9.400;2023-04-07T00:10:36;96682.66;;;4.88;100.00
28927;BME280;16038;47.692;9.400;2023-04-07T00:13:03;96686.25;;;4.79;100.00
28927;BME280;16038;47.692;9.400;2023-04-07T00:15:28;96686.56;;;4.78;100.00
28927;BME280;16038;47.692;9.400;2023-04-07T00:17:53;96679.53;;;4.77;100.00
28927;BME280;16038;47.692;9.400;2023-04-07T00:20:18;96677.19;;;4.75;100.00
28927;BME280;16038;47.692;9.400;2023-04-07T00:22:44;96671.06;;;4.78;100.00
28927;BME280;16038;47.692;9.400;2023-04-07T00:25:10;96669.31;;;4.83;100.00
28927;BME280;16038;47.692;9.400;2023-04-07T00:27:35;96664.94;;;4.90;100.00
28927;BME280;16038;47.692;9.400;2023-04-07T00:30:01;96665.44;;;4.84;100.00
28927;BME280;16038;47.692;9.400;2023-04-07T00:32:27;96661.03;;;4.79;100.00
28927;BME280;16038;47.692;9.400;2023-04-07T00:34:52;96661.81;;;4.79;100.00
28927;BME280;16038;47.692;9.400;2023-04-07T00:37:17;96667.84;;;4.85;100.00
28927;BME280;16038;47.692;9.400;2023-04-07T00:39:43;96659.97;;;4.92;100.00
28927;BME280;16038;47.692;9.400;2023-04-07T00:42:08;96655.88;;;4.86;100.00
28927;BME280;16038;47.692;9.400;2023-04-07T00:44:34;96650.78;;;4.85;100.00
28927;BME280;16038;47.692;9.400;2023-04-07T00:46:59;96640.91;;;4.80;100.00
28927;BME280;16038;47.692;9.400;2023-04-07T00:49:25;96649.19;;;4.84;100.00
28927;BME280;16038;47.692;9.400;2023-04-07T00:51:53;96640.25;;;4.83;100.00
28927;BME280;16038;47.692;9.400;2023-04-07T00:54:18;96631.66;;;4.81;100.00
28927;BME280;16038;47.692;9.400;2023-04-07T00:56:43;96635.16;;;4.82;100.00
28927;BME280;16038;47.692;9.400;2023-04-07T00:59:08;96637.84;;;4.82;100.00
28927;BME280;16038;47.692;9.400;2023-04-07T01:01:44;96636.25;;;4.81;100.00
28927;BME280;16038;47.692;9.400;2023-04-07T01:06:53;96621.91;;;4.80;100.00
28927;BME280;16038;47.692;9.400;2023-04-07T01:09:22;96629.66;;;4.90;100.00
28927;BME280;16038;47.692;9.400;2023-04-07T01:12:01;96627.53;;;5.17;100.00
28927;BME280;16038;47.692;9.400;2023-04-07T01:14:32;96620.84;;;5.48;100.00
28927;BME280;16038;47.692;9.400;2023-04-07T01:16:58;96623.03;;;5.67;100.00
28927;BME280;16038;47.692;9.400;2023-04-07T01:19:42;96622.63;;;5.44;100.00
28927;BME280;16038;47.692;9.400;2023-04-07T01:22:12;96618.16;;;5.27;100.00
28927;BME280;16038;47.692;9.400;2023-04-07T01:24:41;96611.09;;;5.13;100.00
28927;BME280;16038;47.692;9.400;2023-04-07T01:27:16;96599.91;;;5.15;100.00
28927;BME280;16038;47.692;9.400;2023-04-07T01:29:43;96593.53;;;5.11;100.00
28927;BME280;16038;47.692;9.400;2023-04-07T01:32:12;96592.13;;;4.92;100.00
28927;BME280;16038;47.692;9.400;2023-04-07T01:34:38;96581.00;;;4.85;100.00
28927;BME280;16038;47.692;9.400;2023-04-07T01:37:05;96591.06;;;4.85;100.00
28927;BME280;16038;47.692;9.400;2023-04-07T01:39:30;96586.56;;;4.89;100.00
28927;BME280;16038;47.692;9.400;2023-04-07T01:41:56;96581.38;;;4.96;100.00
28927;BME280;16038;47.692;9.400;2023-04-07T01:44:22;96588.31;;;5.06;100.00
28927;BME280;16038;47.692;9.400;2023-04-07T01:46:48;96575.88;;;5.05;100.00
28927;BME280;16038;47.692;9.400;2023-04-07T01:49:17;96570.78;;;5.03;100.00
28927;BME280;16038;47.692;9.400;2023-04-07T01:51:43;96563.44;;;5.04;100.00
28927;BME280;16038;47.692;9.400;2023-04-07T01:54:09;96566.84;;;5.01;100.00
28927;BME280;16038;47.692;9.400;2023-04-07T01:56:34;96568.72;;;5.00;100.00
28927;BME280;16038;47.692;9.400;2023-04-07T01:59:00;96562.84;;;4.98;100.00
28927;BME280;16038;47.692;9.400;2023-04-07T02:01:25;96571.13;;;5.02;100.00
28927;BME280;16038;47.692;9.400;2023-04-07T02:06:33;96558.34;;;5.02;100.00
28927;BME280;16038;47.692;9.400;2023-04-07T02:09:01;96559.41;;;5.10;100.00
28927;BME280;16038;47.692;9.400;2023-04-07T02:11:28;96562.78;;;5.07;100.00
28927;BME280;16038;47.692;9.400;2023-04-07T02:13:56;96556.81;;;5.13;100.00
28927;BME280;16038;47.692;9.400;2023-04-07T02:16:22;96555.47;;;5.20;100.00
28927;BME280;16038;47.692;9.400;2023-04-07T02:18:48;96552.88;;;5.23;100.00
28927;BME280;16038;47.692;9.400;2023-04-07T02:21:14;96553.91;;;5.31;100.00
28927;BME280;16038;47.692;9.400;2023-04-07T02:23:40;96545.50;;;5.24;100.00
28927;BME280;16038;47.692;9.400;2023-04-07T02:26:05;96547.41;;;5.11;100.00
28927;BME280;16038;47.692;9.400;2023-04-07T02:28:30;96540.47;;;5.01;100.00
28927;BME280;16038;47.692;9.400;2023-04-07T02:30:55;96529.56;;;4.89;100.00
28927;BME280;16038;47.692;9.400;2023-04-07T02:33:21;96538.16;;;4.91;100.00
28927;BME280;16038;47.692;9.400;2023-04-07T02:35:46;96533.91;;;5.02;100.00
28927;BME280;16038;47.692;9.400;2023-04-07T02:38:11;96531.66;;;5.04;100.00
28927;BME280;16038;47.692;9.400;2023-04-07T02:40:37;96519.22;;;5.03;100.00
28927;BME280;16038;47.692;9.400;2023-04-07T02:43:02;96522.59;;;5.00;100.00
28927;BME280;16038;47.692;9.400;2023-04-07T02:45:29;96525.44;;;5.04;100.00
28927;BME280;16038;47.692;9.400;2023-04-07T02:47:55;96514.44;;;5.00;100.00
28927;BME280;16038;47.692;9.400;2023-04-07T02:50:20;96508.63;;;4.89;100.00
28927;BME280;16038;47.692;9.400;2023-04-07T02:52:45;96503.28;;;4.81;100.00
28927;BME280;16038;47.692;9.400;2023-04-07T02:55:11;96510.56;;;4.89;100.00
28927;BME280;16038;47.692;9.400;2023-04-07T02:57:36;96504.28;;;4.97;100.00
28927;BME280;16038;47.692;9.400;2023-04-07T03:00:03;96495.28;;;5.17;100.00
28927;BME280;16038;47.692;9.400;2023-04-07T03:02:29;96495.88;;;5.35;100.00
28927;BME280;16038;47.692;9.400;2023-04-07T03:04:54;96495.44;;;5.46;100.00
28927;BME280;16038;47.692;9.400;2023-04-07T03:07:20;96490.00;;;5.58;100.00
28927;BME280;16038;47.692;9.400;2023-04-07T03:09:45;96487.16;;;5.54;100.00
28927;BME280;16038;47.692;9.400;2023-04-07T03:12:10;96488.53;;;5.48;100.00
28927;BME280;16038;47.692;9.400;2023-04-07T03:14:35;96488.41;;;5.45;100.00
28927;BME280;16038;47.692;9.400;2023-04-07T03:17:02;96482.63;;;5.46;100.00
28927;BME280;16038;47.692;9.400;2023-04-07T03:19:27;96486.59;;;5.49;100.00
28927;BME280;16038;47.692;9.400;2023-04-07T03:21:52;96482.31;;;5.48;100.00
28927;BME280;16038;47.692;9.400;2023-04-07T03:24:18;96472.78;;;5.42;100.00
28927;BME280;16038;47.692;9.400;2023-04-07T03:26:43;96475.25;;;5.34;100.00
28927;BME280;16038;47.692;9.400;2023-04-07T03:29:08;96473.69;;;5.33;100.00
28927;BME280;16038;47.692;9.400;2023-04-07T03:31:33;96465.44;;;5.30;100.00
28927;BME280;16038;47.692;9.400;2023-04-07T03:33:59;96467.56;;;5.24;100.00
28927;BME280;16038;47.692;9.400;2023-04-07T03:36:24;96466.06;;;5.14;100.00
28927;BME280;16038;47.692;9.400;2023-04-07T03:38:52;96465.84;;;5.07;100.00
28927;BME280;16038;47.692;9.400;2023-04-07T03:41:17;96460.13;;;4.88;100.00
28927;BME280;16038;47.692;9.400;2023-04-07T03:43:42;96464.03;;;4.66;100.00
28927;BME280;16038;47.692;9.400;2023-04-07T03:46:07;96459.25;;;4.63;100.00
28927;BME280;16038;47.692;9.400;2023-04-07T03:48:33;96462.09;;;4.66;100.00
28927;BME280;16038;47.692;9.400;2023-04-07T03:50:58;96454.44;;;4.68;100.00
28927;BME280;16038;47.692;9.400;2023-04-07T03:53:23;96452.34;;;4.53;100.00
28927;BME280;16038;47.692;9.400;2023-04-07T03:55:48;96451.75;;;4.47;100.00
28927;BME280;16038;47.692;9.400;2023-04-07T03:58:14;96449.78;;;4.35;100.00
28927;BME280;16038;47.692;9.400;2023-04-07T04:00:40;96437.56;;;4.29;100.00
28927;BME280;16038;47.692;9.400;2023-04-07T04:03:05;96435.81;;;4.25;100.00
28927;BME280;16038;47.692;9.400;2023-04-07T04:05:30;96440.59;;;4.28;100.00
28927;BME280;16038;47.692;9.400;2023-04-07T04:07:56;96437.56;;;4.29;100.00
28927;BME280;16038;47.692;9.400;2023-04-07T04:10:21;96423.22;;;4.29;100.00
28927;BME280;16038;47.692;9.400;2023-04-07T04:12:47;96419.34;;;4.30;100.00
28927;BME280;16038;47.692;9.400;2023-04-07T04:15:13;96428.28;;;4.30;100.00
28927;BME280;16038;47.692;9.400;2023-04-07T04:17:39;96426.44;;;4.22;100.00
28927;BME280;16038;47.692;9.400;2023-04-07T04:20:05;96422.19;;;4.12;100.00
28927;BME280;16038;47.692;9.400;2023-04-07T04:22:31;96420.03;;;4.06;100.00
28927;BME280;16038;47.692;9.400;2023-04-07T04:24:57;96427.59;;;4.00;100.00
28927;BME280;16038;47.692;9.400;2023-04-07T04:27:23;96419.78;;;3.98;100.00
28927;BME280;16038;47.692;9.400;2023-04-07T04:29:49;96426.63;;;3.96;100.00
28927;BME280;16038;47.692;9.400;2023-04-07T04:32:14;96427.09;;;3.98;100.00
28927;BME280;16038;47.692;9.400;2023-04-07T04:34:42;96432.19;;;3.99;100.00
28927;BME280;16038;47.692;9.400;2023-04-07T04:37:07;96435.34;;;4.01;100.00
28927;BME280;16038;47.692;9.400;2023-04-07T04:39:33;96436.63;;;4.04;100.00
28927;BME280;16038;47.692;9.400;2023-04-07T04:41:58;96442.78;;;4.13;100.00
28927;BME280;16038;47.692;9.400;2023-04-07T04:44:23;96440.00;;;4.22;100.00
28927;BME280;16038;47.692;9.400;2023-04-07T04:46:49;96441.56;;;4.23;100.00
28927;BME280;16038;47.692;9.400;2023-04-07T04:49:14;96439.41;;;4.16;100.00
28927;BME280;16038;47.692;9.400;2023-04-07T04:51:40;96444.69;;;4.13;100.00
28927;BME280;16038;47.692;9.400;2023-04-07T04:54:06;96450.78;;;4.10;100.00
28927;BME280;16038;47.692;9.400;2023-04-07T04:56:31;96440.72;;;4.10;100.00
28927;BME280;16038;47.692;9.400;2023-04-07T04:58:56;96440.53;;;4.15;100.00
28927;BME280;16038;47.692;9.400;2023-04-07T05:01:22;96437.94;;;4.19;100.00
28927;BME280;16038;47.692;9.400;2023-04-07T05:03:47;96437.69;;;4.12;100.00
28927;BME280;16038;47.692;9.400;2023-04-07T05:06:12;96437.03;;;4.15;100.00
28927;BME280;16038;47.692;9.400;2023-04-07T05:08:38;96434.44;;;4.18;100.00
28927;BME280;16038;47.692;9.400;2023-04-07T05:11:03;96433.19;;;4.16;100.00
28927;BME280;16038;47.692;9.400;2023-04-07T05:13:29;96428.44;;;4.13;100.00
28927;BME280;16038;47.692;9.400;2023-04-07T05:15:55;96425.72;;;4.13;100.00
28927;BME280;16038;47.692;9.400;2023-04-07T05:18:22;96429.34;;;4.17;100.00
28927;BME280;16038;47.692;9.400;2023-04-07T05:20:48;96430.28;;;4.21;100.00
28927;BME280;16038;47.692;9.400;2023-04-07T05:23:14;96432.59;;;4.31;100.00
28927;BME280;16038;47.692;9.400;2023-04-07T05:25:39;96426.44;;;4.43;100.00
28927;BME280;16038;47.692;9.400;2023-04-07T05:28:04;96423.41;;;4.57;100.00
28927;BME280;16038;47.692;9.400;2023-04-07T05:30:30;96417.03;;;4.74;100.00
28927;BME280;16038;47.692;9.400;2023-04-07T05:32:55;96417.63;;;4.92;100.00
28927;BME280;16038;47.692;9.400;2023-04-07T05:35:21;96413.22;;;5.00;100.00
28927;BME280;16038;47.692;9.400;2023-04-07T05:37:46;96412.06;;;4.76;98.87
28927;BME280;16038;47.692;9.400;2023-04-07T05:40:11;96415.97;;;4.54;100.00
28927;BME280;16038;47.692;9.400;2023-04-07T05:42:36;96419.41;;;4.42;100.00
28927;BME280;16038;47.692;9.400;2023-04-07T05:45:02;96416.94;;;4.49;100.00
28927;BME280;16038;47.692;9.400;2023-04-07T05:47:28;96413.50;;;4.61;100.00
28927;BME280;16038;47.692;9.400;2023-04-07T05:49:53;96413.63;;;4.65;100.00
28927;BME280;16038;47.692;9.400;2023-04-07T05:52:18;96416.09;;;4.70;100.00
28927;BME280;16038;47.692;9.400;2023-04-07T05:54:44;96414.78;;;4.76;100.00
28927;BME280;16038;47.692;9.400;2023-04-07T05:57:09;96414.31;;;4.74;100.00
28927;BME280;16038;47.692;9.400;2023-04-07T05:59:34;96416.22;;;4.73;100.00
28927;BME280;16038;47.692;9.400;2023-04-07T06:02:01;96411.53;;;4.83;99.89
28927;BME280;16038;47.692;9.400;2023-04-07T06:04:26;96416.50;;;4.93;98.78
28927;BME280;16038;47.692;9.400;2023-04-07T06:06:52;96415.94;;;5.00;96.43
28927;BME280;16038;47.692;9.400;2023-04-07T06:09:19;96410.41;;;5.08;97.13
28927;BME280;16038;47.692;9.400;2023-04-07T06:11:45;96418.00;;;5.15;97.06
28927;BME280;16038;47.692;9.400;2023-04-07T06:14:11;96414.94;;;5.16;96.44
28927;BME280;16038;47.692;9.400;2023-04-07T06:16:36;96413.03;;;5.17;96.38
28927;BME280;16038;47.692;9.400;2023-04-07T06:19:01;96419.16;;;5.39;96.38
28927;BME280;16038;47.692;9.400;2023-04-07T06:21:27;96417.56;;;5.38;93.75
28927;BME280;16038;47.692;9.400;2023-04-07T06:23:52;96412.13;;;5.50;92.88
28927;BME280;16038;47.692;9.400;2023-04-07T06:26:17;96409.97;;;5.55;92.42
28927;BME280;16038;47.692;9.400;2023-04-07T06:28:42;96411.56;;;5.57;91.60
28927;BME280;16038;47.692;9.400;2023-04-07T06:31:08;96411.09;;;5.67;91.80
28927;BME280;16038;47.692;9.400;2023-04-07T06:33:33;96414.22;;;5.81;90.79
28927;BME280;16038;47.692;9.400;2023-04-07T06:35:59;96418.53;;;6.07;90.21
28927;BME280;16038;47.692;9.400;2023-04-07T06:38:24;96414.53;;;6.17;88.57
28927;BME280;16038;47.692;9.400;2023-04-07T06:40:49;96410.81;;;6.65;86.86
28927;BME280;16038;47.692;9.400;2023-04-07T06:43:15;96410.53;;;6.99;84.69
28927;BME280;16038;47.692;9.400;2023-04-07T06:45:40;96412.03;;;7.44;80.59
28927;BME280;16038;47.692;9.400;2023-04-07T06:48:05;96408.00;;;8.28;81.56
28927;BME280;16038;47.692;9.400;2023-04-07T06:50:31;96414.75;;;7.44;78.55
28927;BME280;16038;47.692;9.400;2023-04-07T06:52:56;96419.78;;;8.48;77.48
28927;BME280;16038;47.692;9.400;2023-04-07T06:55:21;96409.28;;;9.16;71.85
28927;BME280;16038;47.692;9.400;2023-04-07T06:57:47;96412.66;;;8.63;69.13
28927;BME280;16038;47.692;9.400;2023-04-07T07:00:12;96413.78;;;8.42;66.98
28927;BME280;16038;47.692;9.400;2023-04-07T07:02:37;96414.94;;;8.61;70.14
28927;BME280;16038;47.692;9.400;2023-04-07T07:05:03;96411.59;;;9.14;68.33
28927;BME280;16038;47.692;9.400;2023-04-07T07:07:29;96400.28;;;9.62;65.55
28927;BME280;16038;47.692;9.400;2023-04-07T07:09:54;96408.72;;;10.06;59.04
28927;BME280;16038;47.692;9.400;2023-04-07T07:12:20;96402.38;;;8.99;61.94
28927;BME280;16038;47.692;9.400;2023-04-07T07:14:45;96412.19;;;8.22;67.43
28927;BME280;16038;47.692;9.400;2023-04-07T07:17:10;96402.75;;;8.97;64.51
28927;BME280;16038;47.692;9.400;2023-04-07T07:19:36;96402.31;;;9.68;61.09
28927;BME280;16038;47.692;9.400;2023-04-07T07:22:01;96404.13;;;8.88;63.93
28927;BME280;16038;47.692;9.400;2023-04-07T07:24:28;96407.09;;;8.79;64.76
28927;BME280;16038;47.692;9.400;2023-04-07T07:26:53;96410.63;;;8.79;64.50
28927;BME280;16038;47.692;9.400;2023-04-07T07:29:19;96416.53;;;9.28;62.69
28927;BME280;16038;47.692;9.400;2023-04-07T07:31:44;96417.63;;;10.00;59.37
28927;BME280;16038;47.692;9.400;2023-04-07T07:34:09;96408.38;;;10.38;57.60
28927;BME280;16038;47.692;9.400;2023-04-07T07:36:35;96417.94;;;10.51;58.13
28927;BME280;16038;47.692;9.400;2023-04-07T07:39:00;96400.53;;;11.08;56.59
28927;BME280;16038;47.692;9.400;2023-04-07T07:41:26;96401.09;;;10.87;57.45
28927;BME280;16038;47.692;9.400;2023-04-07T07:43:51;96400.09;;;10.04;58.67
28927;BME280;16038;47.692;9.400;2023-04-07T07:46:17;96399.28;;;10.30;56.79
28927;BME280;16038;47.692;9.400;2023-04-07T07:48:42;96405.44;;;10.24;59.04
28927;BME280;16038;47.692;9.400;2023-04-07T07:51:07;96404.22;;;10.85;55.20
28927;BME280;16038;47.692;9.400;2023-04-07T07:53:32;96403.56;;;11.40;52.88
28927;BME280;16038;47.692;9.400;2023-04-07T07:55:58;96407.38;;;11.80;52.69
28927;BME280;16038;47.692;9.400;2023-04-07T07:58:23;96403.66;;;13.27;49.27
28927;BME280;16038;47.692;9.400;2023-04-07T08:00:48;96396.50;;;14.37;44.74
28927;BME280;16038;47.692;9.400;2023-04-07T08:03:15;96405.84;;;14.72;43.56
28927;BME280;16038;47.692;9.400;2023-04-07T08:05:40;96398.63;;;14.93;43.10
28927;BME280;16038;47.692;9.400;2023-04-07T08:08:06;96404.28;;;16.62;39.38
28927;BME280;16038;47.692;9.400;2023-04-07T08:10:32;96404.09;;;18.53;36.54
28927;BME280;16038;47.692;9.400;2023-04-07T08:12:57;96402.09;;;15.11;37.38
28927;BME280;16038;47.692;9.400;2023-04-07T08:15:23;96405.38;;;17.81;34.36
28927;BME280;16038;47.692;9.400;2023-04-07T08:17:48;96407.25;;;17.61;34.81
28927;BME280;16038;47.692;9.400;2023-04-07T08:20:13;96405.34;;;18.48;33.72
28927;BME280;16038;47.692;9.400;2023-04-07T08:22:39;96408.25;;;17.74;34.91
28927;BME280;16038;47.692;9.400;2023-04-07T08:25:04;96410.53;;;17.79;34.38
28927;BME280;16038;47.692;9.400;2023-04-07T08:27:29;96410.00;;;17.88;34.88
28927;BME280;16038;47.692;9.400;2023-04-07T08:29:58;96412.81;;;17.33;34.87
28927;BME280;16038;47.692;9.400;2023-04-07T08:32:24;96411.66;;;16.38;36.86
28927;BME280;16038;47.692;9.400;2023-04-07T08:34:49;96410.34;;;16.50;37.49
28927;BME280;16038;47.692;9.400;2023-04-07T08:37:15;96415.41;;;16.21;38.06
28927;BME280;16038;47.692;9.400;2023-04-07T08:39:40;96417.16;;;16.00;38.25
28927;BME280;16038;47.692;9.400;2023-04-07T08:42:06;96406.97;;;16.35;38.54
28927;BME280;16038;47.692;9.400;2023-04-07T08:44:32;96411.22;;;16.05;38.75
28927;BME280;16038;47.692;9.400;2023-04-07T08:47:00;96415.28;;;17.00;37.03
28927;BME280;16038;47.692;9.400;2023-04-07T08:49:28;96413.16;;;16.47;38.01
28927;BME280;16038;47.692;9.400;2023-04-07T08:51:56;96415.25;;;17.31;36.99
28927;BME280;16038;47.692;9.400;2023-04-07T08:54:24;96409.16;;;16.82;37.61
28927;BME280;16038;47.692;9.400;2023-04-07T08:56:49;96413.03;;;17.46;35.88
28927;BME280;16038;47.692;9.400;2023-04-07T08:59:15;96414.66;;;16.55;38.86
28927;BME280;16038;47.692;9.400;2023-04-07T09:01:42;96411.28;;;17.05;38.29
28927;BME280;16038;47.692;9.400;2023-04-07T09:04:08;96413.38;;;17.48;36.98
28927;BME280;16038;47.692;9.400;2023-04-07T09:06:33;96404.44;;;16.48;38.02
28927;BME280;16038;47.692;9.400;2023-04-07T09:09:02;96409.63;;;16.08;39.34
28927;BME280;16038;47.692;9.400;2023-04-07T09:11:33;96410.59;;;16.29;39.11
28927;BME280;16038;47.692;9.400;2023-04-07T09:13:59;96406.25;;;16.62;38.60
28927;BME280;16038;47.692;9.400;2023-04-07T09:16:26;96400.88;;;16.51;38.89
28927;BME280;16038;47.692;9.400;2023-04-07T09:18:52;96403.34;;;16.00;39.82
28927;BME280;16038;47.692;9.400;2023-04-07T09:21:18;96407.06;;;15.86;40.60
28927;BME280;16038;47.692;9.400;2023-04-07T09:23:43;96403.91;;;15.84;40.04
28927;BME280;16038;47.692;9.400;2023-04-07T09:26:25;96401.16;;;15.81;40.27
28927;BME280;16038;47.692;9.400;2023-04-07T09:28:56;96401.53;;;15.86;40.09
28927;BME280;16038;47.692;9.400;2023-04-07T09:31:22;96400.91;;;15.61;41.31
28927;BME280;16038;47.692;9.400;2023-04-07T09:33:50;96398.06;;;15.19;41.90
28927;BME280;16038;47.692;9.400;2023-04-07T09:36:16;96393.38;;;15.20;42.18
28927;BME280;16038;47.692;9.400;2023-04-07T09:38:43;96389.31;;;15.32;41.49
28927;BME280;16038;47.692;9.400;2023-04-07T09:41:09;96392.47;;;15.30;41.91
28927;BME280;16038;47.692;9.400;2023-04-07T09:43:44;96393.16;;;14.82;42.60
28927;BME280;16038;47.692;9.400;2023-04-07T09:46:13;96399.19;;;14.66;42.81
28927;BME280;16038;47.692;9.400;2023-04-07T09:48:40;96403.09;;;14.68;42.79
28927;BME280;16038;47.692;9.400;2023-04-07T09:51:09;96397.72;;;14.18;43.17
28927;BME280;16038;47.692;9.400;2023-04-07T09:53:45;96406.47;;;13.45;44.33
28927;BME280;16038;47.692;9.400;2023-04-07T09:56:11;96400.53;;;13.96;44.29
28927;BME280;16038;47.692;9.400;2023-04-07T09:58:37;96406.38;;;14.20;43.34
28927;BME280;16038;47.692;9.400;2023-04-07T10:01:07;96401.28;;;14.08;44.20
28927;BME280;16038;47.692;9.400;2023-04-07T10:03:33;96411.56;;;13.53;45.28
28927;BME280;16038;47.692;9.400;2023-04-07T10:05:59;96410.09;;;12.32;48.04
28927;BME280;16038;47.692;9.400;2023-04-07T10:08:24;96395.34;;;11.92;49.63
28927;BME280;16038;47.692;9.400;2023-04-07T10:10:50;96410.41;;;11.64;50.46
28927;BME280;16038;47.692;9.400;2023-04-07T10:13:16;96397.56;;;11.76;50.75
28927;BME280;16038;47.692;9.400;2023-04-07T10:15:42;96399.09;;;11.73;50.71
28927;BME280;16038;47.692;9.400;2023-04-07T10:18:07;96401.81;;;11.66;51.97
28927;BME280;16038;47.692;9.400;2023-04-07T10:20:33;96408.50;;;11.69;52.72
28927;BME280;16038;47.692;9.400;2023-04-07T10:23:10;96398.63;;;11.60;52.82
28927;BME280;16038;47.692;9.400;2023-04-07T10:25:37;96402.53;;;11.59;53.23
28927;BME280;16038;47.692;9.400;2023-04-07T10:28:05;96403.75;;;11.65;53.29
28927;BME280;16038;47.692;9.400;2023-04-07T10:30:32;96406.91;;;11.67;53.55
28927;BME280;16038;47.692;9.400;2023-04-07T10:32:58;96399.50;;;11.75;53.54
28927;BME280;16038;47.692;9.400;2023-04-07T10:35:23;96407.13;;;11.96;53.30
28927;BME280;16038;47.692;9.400;2023-04-07T10:40:37;96404.94;;;12.27;51.66
28927;BME280;16038;47.692;9.400;2023-04-07T10:43:03;96412.03;;;12.28;51.53
28927;BME280;16038;47.692;9.400;2023-04-07T10:48:13;96411.88;;;11.99;51.94
28927;BME280;16038;47.692;9.400;2023-04-07T10:50:38;96417.41;;;12.10;51.70
28927;BME280;16038;47.692;9.400;2023-04-07T10:53:05;96405.69;;;12.20;52.04
28927;BME280;16038;47.692;9.400;2023-04-07T11:03:28;96407.25;;;12.14;51.88
28927;BME280;16038;47.692;9.400;2023-04-07T11:08:42;96404.69;;;11.88;53.38
28927;BME280;16038;47.692;9.400;2023-04-07T11:11:09;96408.13;;;11.74;54.70
28927;BME280;16038;47.692;9.400;2023-04-07T11:16:10;96417.91;;;12.30;53.11
28927;BME280;16038;47.692;9.400;2023-04-07T11:18:36;96419.22;;;12.65;52.23
28927;BME280;16038;47.692;9.400;2023-04-07T11:21:02;96413.66;;;12.47;52.95
28927;BME280;16038;47.692;9.400;2023-04-07T11:23:29;96412.00;;;12.21;53.12
28927;BME280;16038;47.692;9.400;2023-04-07T11:26:01;96414.88;;;12.53;53.16
28927;BME280;16038;47.692;9.400;2023-04-07T11:28:27;96419.63;;;12.63;52.92
28927;BME280;16038;47.692;9.400;2023-04-07T11:30:53;96419.69;;;12.89;51.63
28927;BME280;16038;47.692;9.400;2023-04-07T11:33:19;96420.56;;;13.07;51.79
28927;BME280;16038;47.692;9.400;2023-04-07T11:35:49;96424.16;;;13.62;49.38
28927;BME280;16038;47.692;9.400;2023-04-07T11:38:15;96412.78;;;13.49;49.50
28927;BME280;16038;47.692;9.400;2023-04-07T11:40:40;96420.97;;;13.20;50.49
28927;BME280;16038;47.692;9.400;2023-04-07T11:46:02;96426.47;;;13.27;49.05
28927;BME280;16038;47.692;9.400;2023-04-07T11:48:28;96420.22;;;13.63;48.45
28927;BME280;16038;47.692;9.400;2023-04-07T11:50:54;96417.44;;;13.99;48.18
28927;BME280;16038;47.692;9.400;2023-04-07T11:55:58;96422.13;;;14.23;46.11
28927;BME280;16038;47.692;9.400;2023-04-07T11:58:23;96417.44;;;13.99;46.99
28927;BME280;16038;47.692;9.400;2023-04-07T12:00:55;96430.75;;;14.32;46.67
28927;BME280;16038;47.692;9.400;2023-04-07T12:03:21;96426.88;;;14.12;45.77
28927;BME280;16038;47.692;9.400;2023-04-07T12:05:46;96427.09;;;14.71;45.52
28927;BME280;16038;47.692;9.400;2023-04-07T12:08:12;96418.94;;;14.39;45.48
28927;BME280;16038;47.692;9.400;2023-04-07T12:10:38;96421.19;;;14.73;44.68
28927;BME280;16038;47.692;9.400;2023-04-07T12:13:05;96433.06;;;14.48;44.27
28927;BME280;16038;47.692;9.400;2023-04-07T12:15:31;96430.38;;;14.23;44.30
28927;BME280;16038;47.692;9.400;2023-04-07T12:17:56;96430.78;;;14.11;44.81
28927;BME280;16038;47.692;9.400;2023-04-07T12:20:21;96434.59;;;14.53;44.32
28927;BME280;16038;47.692;9.400;2023-04-07T12:22:47;96430.06;;;13.67;45.14
28927;BME280;16038;47.692;9.400;2023-04-07T12:25:12;96426.53;;;13.81;45.24
28927;BME280;16038;47.692;9.400;2023-04-07T12:27:37;96420.56;;;14.04;44.87
28927;BME280;16038;47.692;9.400;2023-04-07T12:30:03;96421.00;;;13.95;45.72
28927;BME280;16038;47.692;9.400;2023-04-07T12:32:28;96428.47;;;13.84;44.42
28927;BME280;16038;47.692;9.400;2023-04-07T12:34:54;96427.69;;;13.80;45.40
28927;BME280;16038;47.692;9.400;2023-04-07T12:37:19;96424.94;;;13.80;44.75
28927;BME280;16038;47.692;9.400;2023-04-07T12:39:44;96430.75;;;14.36;44.97
28927;BME280;16038;47.692;9.400;2023-04-07T12:42:10;96433.50;;;14.32;43.68
28927;BME280;16038;47.692;9.400;2023-04-07T12:44:36;96428.72;;;14.47;44.04
28927;BME280;16038;47.692;9.400;2023-04-07T12:47:01;96428.03;;;14.14;45.43
28927;BME280;16038;47.692;9.400;2023-04-07T12:49:27;96421.75;;;14.10;46.02
28927;BME280;16038;47.692;9.400;2023-04-07T12:51:52;96424.44;;;14.36;45.45
28927;BME280;16038;47.692;9.400;2023-04-07T12:54:17;96420.59;;;13.90;45.89
28927;BME280;16038;47.692;9.400;2023-04-07T12:56:42;96423.34;;;13.90;46.45
28927;BME280;16038;47.692;9.400;2023-04-07T12:59:08;96423.78;;;13.45;48.17
28927;BME280;16038;47.692;9.400;2023-04-07T13:01:33;96423.78;;;13.85;48.13
28927;BME280;16038;47.692;9.400;2023-04-07T13:04:02;96413.53;;;13.67;47.47
28927;BME280;16038;47.692;9.400;2023-04-07T13:06:27;96415.06;;;14.11;46.49
28927;BME280;16038;47.692;9.400;2023-04-07T13:08:52;96427.69;;;13.94;47.00
28927;BME280;16038;47.692;9.400;2023-04-07T13:11:18;96425.28;;;14.18;47.27
28927;BME280;16038;47.692;9.400;2023-04-07T13:13:49;96414.88;;;14.72;46.28
28927;BME280;16038;47.692;9.400;2023-04-07T13:16:14;96431.47;;;14.62;45.86
28927;BME280;16038;47.692;9.400;2023-04-07T13:18:40;96414.81;;;14.83;45.61
28927;BME280;16038;47.692;9.400;2023-04-07T13:21:05;96423.25;;;14.37;45.70
28927;BME280;16038;47.692;9.400;2023-04-07T13:23:31;96419.03;;;13.96;47.05
28927;BME280;16038;47.692;9.400;2023-04-07T13:25:56;96419.03;;;14.00;46.95